Bookmark and Share
Track history (hours):
 

Fugaku Maru

Last reported at 2014-Apr-23 21:20 UTC. Time now 2014-Apr-24 06:25 UTC.
Position N 34°37' E 139°21'.

Length 165 m; draft 7.2 m.

Type: Cargo ship. MMSI: 431200176.

NotesDate/timePositionNaut miles runAvg speedWind from/ knotsBaromVisibWave heightAir tempDewpointWater temp
2014-Apr-23 21:20N 34°37' E 139°21'1620.8
2014-Apr-23 20:33N 34°42' E 139°40'2120.9
2014-Apr-23 19:33N 34°50' E 140°03'2020.5
2014-Apr-23 18:33N 35°01' E 140°24'1918.7
2014-Apr-23 17:33N 35°15' E 140°40'2020.4
2014-Apr-23 16:33N 35°32' E 140°53'2019.5
2014-Apr-23 15:31N 35°50' E 141°02'  
2014-Apr-20 23:06N 35°33' E 140°53'1221.3
2014-Apr-20 22:33N 35°24' E 140°45'2120.8
2014-Apr-20 21:33N 35°07' E 140°30'2120.8
2014-Apr-20 20:33N 34°55' E 140°10'2020.4
2014-Apr-20 19:33N 34°45' E 139°48'6619.9
2014-Apr-20 16:15N 34°28' E 138°31'46 2.4
2014-Apr-19 21:32N 34°38' E 139°25'2020.8
2014-Apr-19 20:33N 34°45' E 139°48'2120.8
2014-Apr-19 19:33N 34°54' E 140°10'2120.5
2014-Apr-19 18:32N 35°06' E 140°31'2120.7
2014-Apr-19 17:33N 35°24' E 140°45'  
2014-Apr-16 22:17N 35°33' E 140°52'1520.5
2014-Apr-16 21:33N 35°20' E 140°42'2120.1
2014-Apr-16 20:32N 35°03' E 140°28'1919.4
2014-Apr-16 19:33N 34°53' E 140°08'2019.8
2014-Apr-16 18:33N 34°44' E 139°47'2820.4
2014-Apr-16 17:10N 34°33' E 139°15'3720.2
2014-Apr-16 15:20N 34°27' E 138°31'42 2.3
2014-Apr-15 21:24N 34°36' E 139°20'1720.0
2014-Apr-15 20:33N 34°42' E 139°40'2121.1
2014-Apr-15 19:33N 34°51' E 140°03'2121.4
2014-Apr-15 18:33N 35°05' E 140°23'2019.7
2014-Apr-15 17:33N 35°18' E 140°41'2219.6
2014-Apr-15 16:25N 35°37' E 140°56'14 0.3
2014-Apr-13 21:33N 35°25' E 140°46'  

Dump ship's entire track history

sailing weather and tide predictions

Fugaku Maru — JH3428 — position and weather